createdAt,value
2022-08-01T00:02:58.962Z,100307.50
2022-08-01T00:08:01.534Z,100313.28
2022-08-01T00:13:03.945Z,100308.63
2022-08-01T00:18:06.551Z,100307.00
2022-08-01T00:23:09.073Z,100313.28
2022-08-01T00:28:11.639Z,100311.16
2022-08-01T00:33:14.164Z,100303.03
2022-08-01T00:38:16.718Z,100309.25
2022-08-01T00:43:19.248Z,100309.34
2022-08-01T00:48:21.683Z,100316.63
2022-08-01T00:53:24.085Z,100316.06
2022-08-01T00:58:30.362Z,100315.88
2022-08-01T01:03:57.610Z,100311.22
2022-08-01T01:09:07.634Z,100306.31
2022-08-01T01:14:28.091Z,100304.44
2022-08-01T01:19:33.092Z,100307.16
2022-08-01T01:24:41.912Z,100286.28
2022-08-01T01:29:59.932Z,100294.84
2022-08-01T01:35:27.856Z,100310.63
2022-08-01T01:40:32.021Z,100298.06
2022-08-01T01:45:34.671Z,100298.03
2022-08-01T01:50:37.740Z,100304.53
2022-08-01T01:55:49.594Z,100300.25
2022-08-01T02:00:53.984Z,100296.00
2022-08-01T02:05:57.119Z,100292.25
2022-08-01T02:11:19.003Z,100287.97
2022-08-01T02:16:23.750Z,100283.56
2022-08-01T02:21:35.265Z,100287.34
2022-08-01T02:26:40.944Z,100296.81
2022-08-01T02:31:46.209Z,100288.16
2022-08-01T02:36:49.632Z,100299.97
2022-08-01T02:41:59.573Z,100299.69
2022-08-01T02:47:06.448Z,100298.66
2022-08-01T02:52:10.666Z,100298.72
2022-08-01T02:57:14.930Z,100294.34
2022-08-01T03:02:18.547Z,100306.88
2022-08-01T03:07:22.212Z,100307.97
2022-08-01T03:12:28.380Z,100300.84
2022-08-01T03:17:31.304Z,100250.31
2022-08-01T03:22:34.571Z,100305.72
2022-08-01T03:27:38.667Z,100305.72
2022-08-01T03:32:41.363Z,100304.09
2022-08-01T03:38:14.215Z,100298.22
2022-08-01T03:43:43.809Z,100306.31
2022-08-01T03:48:49.678Z,100301.44
2022-08-01T03:53:53.708Z,100308.72
2022-08-01T03:58:56.406Z,100296.94
2022-08-01T04:04:00.673Z,100290.38
2022-08-01T04:09:03.213Z,100298.81
2022-08-01T04:14:08.666Z,100301.63
2022-08-01T04:19:11.899Z,100305.78
2022-08-01T04:24:19.837Z,100310.50
2022-08-01T04:29:23.141Z,100303.69
2022-08-01T04:34:27.870Z,100305.59
2022-08-01T04:39:33.220Z,100298.97
2022-08-01T04:44:53.397Z,100305.94
2022-08-01T04:49:57.831Z,100298.56
2022-08-01T04:55:00.339Z,100307.59
2022-08-01T05:00:03.766Z,100303.63
2022-08-01T05:05:07.218Z,100315.06
2022-08-01T05:10:10.123Z,100316.03
2022-08-01T05:15:15.442Z,100322.94
2022-08-01T05:20:18.351Z,100320.97
2022-08-01T05:25:53.083Z,100323.94
2022-08-01T05:30:43.633Z,100314.88
2022-08-01T05:35:48.351Z,100313.06
2022-08-01T05:40:51.969Z,100318.56
2022-08-01T05:45:54.737Z,100311.53
2022-08-01T05:50:58.809Z,100315.31
2022-08-01T05:56:03.254Z,100320.66
2022-08-01T06:01:05.886Z,100318.56
2022-08-01T06:06:08.710Z,100316.25
2022-08-01T06:11:11.493Z,100319.38
2022-08-01T06:16:15.913Z,100314.22
2022-08-01T06:21:18.562Z,100317.75
2022-08-01T06:26:21.720Z,100316.25
2022-08-01T06:31:24.441Z,100313.97
2022-08-01T06:36:27.144Z,100317.28
2022-08-01T06:41:29.662Z,100325.03
2022-08-01T06:46:32.159Z,100315.31
2022-08-01T06:51:35.993Z,100315.69
2022-08-01T06:56:38.460Z,100312.00
2022-08-01T07:01:41.058Z,100321.47
2022-08-01T07:06:43.620Z,100315.59
2022-08-01T07:11:46.507Z,100319.03
2022-08-01T07:16:49.298Z,100314.75
2022-08-01T07:21:52.602Z,100310.50
2022-08-01T07:26:56.385Z,100303.81
2022-08-01T07:32:00.291Z,100312.41
2022-08-01T07:37:02.657Z,100309.50
2022-08-01T07:42:07.729Z,100310.47
2022-08-01T07:47:11.205Z,100312.19
2022-08-01T07:52:13.859Z,100303.97
2022-08-01T07:57:16.525Z,100316.22
2022-08-01T08:02:19.079Z,100313.84
2022-08-01T08:07:21.752Z,100314.88
2022-08-01T08:12:29.669Z,100316.25
2022-08-01T08:17:35.905Z,100323.84
2022-08-01T08:22:39.327Z,100315.13
2022-08-01T08:27:41.758Z,100315.53
2022-08-01T08:32:44.636Z,100309.50
2022-08-01T08:37:47.589Z,100312.75
2022-08-01T08:42:52.155Z,100311.69
2022-08-01T08:47:56.218Z,100317.44
2022-08-01T08:53:00.317Z,100316.44
2022-08-01T08:58:06.982Z,100325.28
2022-08-01T09:03:09.686Z,100316.19
2022-08-01T09:08:13.635Z,100325.66
2022-08-01T09:13:16.641Z,100260.41
2022-08-01T09:18:33.142Z,100328.00
2022-08-01T09:23:36.387Z,100324.59
2022-08-01T09:28:39.566Z,100334.34
2022-08-01T09:33:56.643Z,100332.66
2022-08-01T09:39:16.322Z,100336.56
2022-08-01T09:44:33.324Z,100340.72
2022-08-01T09:49:50.056Z,100335.03
2022-08-01T09:54:58.904Z,100341.91
2022-08-01T10:00:03.006Z,100337.06
2022-08-01T10:05:20.861Z,100340.19
2022-08-01T10:10:23.700Z,100335.69
2022-08-01T10:15:36.788Z,100334.13
2022-08-01T10:20:40.322Z,100328.75
2022-08-01T10:25:46.933Z,100333.56
2022-08-01T10:30:50.269Z,100314.47
2022-08-01T10:35:53.358Z,100328.00
2022-08-01T10:40:57.820Z,100333.91
2022-08-01T10:46:00.348Z,100328.50
2022-08-01T10:51:18.059Z,100314.59
2022-08-01T10:56:22.276Z,100311.66
2022-08-01T11:01:34.016Z,100311.78
2022-08-01T11:06:48.761Z,100305.09
2022-08-01T11:12:24.653Z,100318.44
2022-08-01T11:18:00.228Z,100315.38
2022-08-01T11:23:05.353Z,100315.09
2022-08-01T11:28:33.238Z,100317.25
2022-08-01T11:33:46.080Z,100315.56
2022-08-01T11:39:01.631Z,100315.50
2022-08-01T11:44:06.994Z,100309.22
2022-08-01T11:49:38.814Z,100309.09
2022-08-01T11:54:45.333Z,100312.00
2022-08-01T12:00:03.647Z,100301.38
2022-08-01T12:05:19.371Z,100299.25
2022-08-01T12:10:23.986Z,100298.19
2022-08-01T12:15:30.371Z,100301.13
2022-08-01T12:20:55.672Z,100304.66
2022-08-01T12:25:59.450Z,100299.34
2022-08-01T12:31:01.877Z,100308.78
2022-08-01T12:36:04.417Z,100304.41
2022-08-01T12:41:12.266Z,100299.25
2022-08-01T12:46:18.502Z,100301.34
2022-08-01T12:51:21.018Z,100304.47
2022-08-01T12:56:33.580Z,100301.22
2022-08-01T13:01:36.612Z,100297.34
2022-08-01T13:06:39.265Z,100306.59
2022-08-01T13:12:03.989Z,100311.19
2022-08-01T13:17:05.118Z,100307.94
2022-08-01T13:22:11.298Z,100311.97
2022-08-01T13:27:25.006Z,100305.00
2022-08-01T13:32:31.625Z,100310.91
2022-08-01T13:37:35.115Z,100301.75
2022-08-01T13:42:40.292Z,100303.09
2022-08-01T13:48:03.260Z,100291.09
2022-08-01T13:53:06.944Z,100304.16
2022-08-01T13:58:09.539Z,100308.66
2022-08-01T14:03:12.102Z,100310.63
2022-08-01T14:08:14.715Z,100312.44
2022-08-01T14:13:19.486Z,100314.91
2022-08-01T14:18:26.883Z,100308.63
2022-08-01T14:23:29.826Z,100313.69
2022-08-01T14:28:32.547Z,100313.91
2022-08-01T14:33:35.135Z,100313.81
2022-08-01T14:38:37.598Z,100322.13
2022-08-01T14:43:40.167Z,100326.00
2022-08-01T14:48:42.878Z,100322.09
2022-08-01T14:53:47.119Z,100313.41
2022-08-01T14:58:55.851Z,100320.66
2022-08-01T15:03:58.587Z,100314.28
2022-08-01T15:09:01.003Z,100317.41
2022-08-01T15:14:29.318Z,100328.75
2022-08-01T15:19:31.876Z,100316.25
2022-08-01T15:24:34.470Z,100310.75
2022-08-01T15:29:39.332Z,100317.97
2022-08-01T15:34:42.547Z,100306.53
2022-08-01T15:39:45.159Z,100313.38
2022-08-01T15:44:47.646Z,100318.88
2022-08-01T15:49:52.429Z,100318.84
2022-08-01T15:54:55.291Z,100328.84
2022-08-01T15:59:58.052Z,100321.88
2022-08-01T16:05:00.416Z,100320.06
2022-08-01T16:10:02.818Z,100327.28
2022-08-01T16:15:06.038Z,100331.91
2022-08-01T16:20:09.392Z,100340.13
2022-08-01T16:25:13.637Z,100324.03
2022-08-01T16:30:16.171Z,100334.13
2022-08-01T16:35:19.033Z,100339.06
2022-08-01T16:40:21.501Z,100335.59
2022-08-01T16:45:24.224Z,100326.06
2022-08-01T16:50:28.135Z,100342.09
2022-08-01T16:55:49.185Z,100337.44
2022-08-01T17:00:56.807Z,100342.91
2022-08-01T17:05:59.860Z,100350.44
2022-08-01T17:11:02.627Z,100352.97
2022-08-01T17:16:09.042Z,100347.72
2022-08-01T17:21:11.809Z,100346.00
2022-08-01T17:26:14.215Z,100361.44
2022-08-01T17:31:16.889Z,100358.72
2022-08-01T17:36:21.223Z,100366.03
2022-08-01T17:41:23.813Z,100363.84
2022-08-01T17:46:26.311Z,100373.53
2022-08-01T17:51:29.483Z,100374.16
2022-08-01T17:56:36.235Z,100374.75
2022-08-01T18:01:45.266Z,100374.66
2022-08-01T18:06:58.178Z,100373.56
2022-08-01T18:12:03.334Z,100384.13
2022-08-01T18:17:06.672Z,100388.28
2022-08-01T18:22:31.489Z,100378.44
2022-08-01T18:28:29.370Z,100394.72
2022-08-01T18:32:57.864Z,100406.09
2022-08-01T18:38:00.684Z,100408.28
2022-08-01T18:43:04.709Z,100404.53
2022-08-01T18:48:07.424Z,100427.97
2022-08-01T18:53:10.020Z,100428.19
2022-08-01T18:58:12.458Z,100444.91
2022-08-01T19:03:16.251Z,100434.09
2022-08-01T19:08:18.784Z,100451.81
2022-08-01T19:13:21.317Z,100452.16
2022-08-01T19:18:24.478Z,100459.66
2022-08-01T19:23:45.805Z,100464.31
2022-08-01T19:28:53.328Z,100468.19
2022-08-01T19:33:57.440Z,100467.50
2022-08-01T19:39:00.046Z,100469.09
2022-08-01T19:44:03.955Z,100471.66
2022-08-01T19:49:06.457Z,100472.38
2022-08-01T19:54:12.025Z,100473.69
2022-08-01T19:59:23.301Z,100471.66
2022-08-01T20:04:26.403Z,100473.41
2022-08-01T20:09:29.186Z,100469.78
2022-08-01T20:14:31.599Z,100462.44
2022-08-01T20:19:34.135Z,100485.31
2022-08-01T20:24:41.989Z,100486.03
2022-08-01T20:29:46.746Z,100485.59
2022-08-01T20:34:50.130Z,100485.94
2022-08-01T20:39:58.189Z,100490.94
2022-08-01T20:45:04.301Z,100494.53
2022-08-01T20:50:28.509Z,100502.06
2022-08-01T20:55:51.163Z,100502.38
2022-08-01T21:00:55.145Z,100494.72
2022-08-01T21:06:05.697Z,100500.56
2022-08-01T21:11:17.606Z,100498.78
2022-08-01T21:16:27.596Z,100510.34
2022-08-01T21:21:31.106Z,100513.88
2022-08-01T21:26:35.974Z,100514.16
2022-08-01T21:31:41.333Z,100527.94
2022-08-01T21:36:45.246Z,100529.81
2022-08-01T21:41:56.529Z,100538.31
2022-08-01T21:47:11.651Z,100534.06
2022-08-01T21:52:21.721Z,100535.00
2022-08-01T21:57:49.418Z,100537.97
2022-08-01T22:03:19.344Z,100544.16
2022-08-01T22:08:29.833Z,100550.97
2022-08-01T22:13:34.514Z,100551.75
2022-08-01T22:18:37.162Z,100560.38
2022-08-01T22:23:40.010Z,100562.75
2022-08-01T22:28:42.477Z,100566.66
2022-08-01T22:33:46.752Z,100574.66
2022-08-01T22:38:49.205Z,100582.25
2022-08-01T22:44:03.414Z,100587.38
2022-08-01T22:49:23.033Z,100580.66
2022-08-01T22:54:37.706Z,100590.00
2022-08-01T22:59:49.268Z,100599.31
2022-08-01T23:04:53.395Z,100594.81
2022-08-01T23:09:57.230Z,100600.63
2022-08-01T23:15:01.650Z,100600.13
2022-08-01T23:20:07.113Z,100600.47
2022-08-01T23:25:14.458Z,100614.94
2022-08-01T23:30:17.291Z,100611.47
2022-08-01T23:35:20.012Z,100621.31
2022-08-01T23:40:25.255Z,100622.91
2022-08-01T23:45:28.245Z,100615.97
2022-08-01T23:50:50.894Z,100614.28
2022-08-01T23:55:53.354Z,100616.41
